| time (UTC) | temp F | wind direction | speed MPH | gust MPH | rain 1hr in | rain 24hr in | rain mn in | humidity % | barometer mb |
| 20260505205011 | 57 | 243 | 1.0 | 7.0 | 0.00 | 0.00 | 0.00 | 74 | 1009.5 |
| 20260505204527 | 57 | 319 | 1.0 | 6.0 | 0.00 | 0.00 | 0.00 | 73 | 1009.5 |
| 20260505204003 | 58 | 256 | 2.0 | 8.0 | 0.00 | 0.00 | 0.00 | 72 | 1009.3 |
| 20260505203503 | 58 | 232 | 2.0 | 8.0 | 0.00 | 0.00 | 0.00 | 71 | 1009.2 |
| 20260505203019 | 58 | 285 | 1.0 | 5.0 | 0.00 | 0.00 | 0.00 | 72 | 1009.1 |
| 20260505202504 | 57 | 317 | 1.0 | 7.0 | 0.00 | 0.00 | 0.00 | 73 | 1009.0 |
| 20260505202009 | 57 | 274 | 1.0 | 7.0 | 0.00 | 0.00 | 0.00 | 74 | 1009.0 |
| 20260505201531 | 57 | 235 | 0.0 | 2.0 | 0.00 | 0.00 | 0.00 | 74 | 1008.9 |
| 20260505201009 | 57 | 252 | 0.0 | 1.0 | 0.00 | 0.00 | 0.00 | 75 | 1008.6 |
| 20260505200505 | 57 | 242 | 0.0 | 2.0 | 0.00 | 0.00 | 0.00 | 74 | 1008.4 |
| 20260505200025 | 57 | 250 | 0.0 | 2.0 | 0.00 | 0.00 | 0.00 | 74 | 1008.3 |
| 20260505195506 | 57 | 257 | 0.0 | 2.0 | 0.00 | 0.00 | 0.00 | 74 | 1008.2 |
| 20260505195010 | 57 | 275 | 0.0 | 2.0 | 0.00 | 0.00 | 0.00 | 73 | 1008.0 |
| 20260505194528 | 58 | 256 | 0.0 | 2.0 | 0.00 | 0.00 | 0.00 | 73 | 1007.9 |
| 20260505194010 | 58 | 262 | 0.0 | 2.0 | 0.00 | 0.00 | 0.00 | 73 | 1007.8 |
| 20260505193506 | 58 | 269 | 0.0 | 2.0 | 0.00 | 0.00 | 0.00 | 73 | 1007.7 |
| 20260505193015 | 58 | 274 | 0.0 | 2.0 | 0.00 | 0.00 | 0.00 | 73 | 1007.7 |
| 20260505192504 | 58 | 252 | 0.0 | 2.0 | 0.00 | 0.00 | 0.00 | 73 | 1007.6 |
| 20260505192007 | 58 | 284 | 0.0 | 2.0 | 0.00 | 0.00 | 0.00 | 73 | 1007.5 |
| 20260505191520 | 59 | 321 | 0.0 | 2.0 | 0.00 | 0.00 | 0.00 | 73 | 1007.3 |
| 20260505191007 | 59 | 15 | 0.0 | 5.0 | 0.00 | 0.00 | 0.00 | 72 | 1007.3 |
| 20260505190510 | 59 | 318 | 0.0 | 5.0 | 0.00 | 0.00 | 0.00 | 72 | 1007.4 |
| 20260505190025 | 59 | 330 | 0.0 | 3.0 | 0.00 | 0.00 | 0.00 | 73 | 1007.4 |
| 20260505185512 | 59 | 238 | 0.0 | 3.0 | 0.00 | 0.00 | 0.00 | 74 | 1007.5 |
| 20260505185010 | 59 | 269 | 0.0 | 3.0 | 0.00 | 0.00 | 0.00 | 76 | 1007.5 |
| 20260505184527 | 58 | 316 | 0.0 | 3.0 | 0.00 | 0.00 | 0.00 | 76 | 1007.5 |
| 20260505184011 | 59 | 269 | 0.0 | 3.0 | 0.00 | 0.00 | 0.00 | 76 | 1007.4 |
| 20260505183504 | 58 | 323 | 0.0 | 2.0 | 0.00 | 0.00 | 0.00 | 76 | 1007.3 |
| 20260505183023 | 58 | 328 | 0.0 | 2.0 | 0.00 | 0.00 | 0.00 | 76 | 1007.1 |
| 20260505182507 | 59 | 336 | 0.0 | 2.0 | 0.00 | 0.00 | 0.00 | 75 | 1007.0 |
| 20260505182007 | 59 | 336 | 0.0 | 1.0 | 0.00 | 0.00 | 0.00 | 75 | 1007.0 |
| 20260505181515 | 59 | 313 | 0.0 | 2.0 | 0.00 | 0.00 | 0.00 | 74 | 1006.9 |
| 20260505181004 | 59 | 352 | 0.0 | 1.0 | 0.00 | 0.00 | 0.00 | 74 | 1006.6 |
| 20260505180503 | 60 | 333 | 0.0 | 2.0 | 0.00 | 0.00 | 0.00 | 73 | 1006.6 |
| 20260505180022 | 60 | 336 | 0.0 | 3.0 | 0.00 | 0.00 | 0.00 | 72 | 1006.4 |
| 20260505175508 | 60 | 340 | 0.0 | 3.0 | 0.00 | 0.00 | 0.00 | 71 | 1006.4 |
| 20260505175008 | 60 | 329 | 0.0 | 2.0 | 0.00 | 0.00 | 0.00 | 71 | 1006.3 |
| 20260505174529 | 61 | 325 | 0.0 | 2.0 | 0.00 | 0.00 | 0.00 | 71 | 1006.3 |
| 20260505174010 | 61 | 330 | 0.0 | 7.0 | 0.00 | 0.00 | 0.00 | 71 | 1006.4 |
| 20260505173504 | 61 | 336 | 0.0 | 7.0 | 0.00 | 0.00 | 0.00 | 70 | 1006.3 |
| 20260505173019 | 61 | 339 | 0.0 | 4.0 | 0.00 | 0.00 | 0.00 | 70 | 1006.3 |
| 20260505172508 | 61 | 346 | 0.0 | 3.0 | 0.00 | 0.00 | 0.00 | 70 | 1006.2 |
| 20260505172012 | 60 | 315 | 1.0 | 3.0 | 0.00 | 0.00 | 0.00 | 70 | 1006.2 |
| 20260505171521 | 61 | 341 | 0.0 | 3.0 | 0.00 | 0.00 | 0.00 | 70 | 1006.2 |
| 20260505171008 | 61 | 323 | 0.0 | 2.0 | 0.00 | 0.00 | 0.00 | 70 | 1006.2 |
| 20260505170508 | 61 | 337 | 0.0 | 4.0 | 0.00 | 0.00 | 0.00 | 71 | 1006.2 |
| 20260505170021 | 61 | 38 | 0.0 | 4.0 | 0.00 | 0.00 | 0.00 | 71 | 1006.2 |
| 20260505165507 | 61 | 9 | 0.0 | 4.0 | 0.00 | 0.00 | 0.00 | 71 | 1006.3 |
| 20260505165008 | 61 | 14 | 0.0 | 4.0 | 0.00 | 0.00 | 0.00 | 70 | 1006.3 |
| 20260505164522 | 62 | 319 | 1.0 | 7.0 | 0.00 | 0.00 | 0.00 | 68 | 1006.3 |
| 20260505164005 | 62 | 337 | 0.0 | 7.0 | 0.00 | 0.00 | 0.00 | 68 | 1006.3 |
| 20260505163505 | 62 | 285 | 2.0 | 6.0 | 0.00 | 0.00 | 0.00 | 67 | 1006.1 |
| 20260505163023 | 63 | 308 | 0.0 | 4.0 | 0.00 | 0.00 | 0.00 | 68 | 1006.2 |
| 20260505162506 | 62 | 345 | 0.0 | 4.0 | 0.00 | 0.00 | 0.00 | 69 | 1006.2 |
| 20260505162002 | 61 | 298 | 0.0 | 5.0 | 0.00 | 0.00 | 0.00 | 70 | 1006.3 |
| 20260505161506 | 61 | 322 | 1.0 | 5.0 | 0.00 | 0.00 | 0.00 | 69 | 1006.4 |
| 20260505161008 | 61 | 333 | 1.0 | 6.0 | 0.00 | 0.00 | 0.00 | 68 | 1006.5 |
| 20260505160504 | 61 | 332 | 2.0 | 6.0 | 0.00 | 0.00 | 0.00 | 67 | 1006.3 |
| 20260505153003 | 61 | 324 | 1.0 | 4.0 | 0.00 | 0.00 | 0.00 | 69 | 1006.9 |
| 20260505152504 | 61 | 322 | 1.0 | 4.0 | 0.00 | 0.00 | 0.00 | 69 | 1006.9 |
| 20260505152005 | 61 | 343 | 0.0 | 2.0 | 0.00 | 0.00 | 0.00 | 68 | 1007.0 |
| 20260505151506 | 61 | 332 | 0.0 | 3.0 | 0.00 | 0.00 | 0.00 | 70 | 1007.1 |
| 20260505151004 | 61 | 284 | 0.0 | 3.0 | 0.00 | 0.00 | 0.00 | 70 | 1007.2 |
| 20260505150504 | 62 | 273 | 0.0 | 3.0 | 0.00 | 0.00 | 0.00 | 68 | 1007.1 |
| 20260505140505 | 66 | 352 | 6.0 | 14.0 | 0.00 | 0.00 | 0.00 | 50 | 1006.5 |
| 20260505125002 | 73 | 122 | 1.0 | 4.0 | 0.00 | 0.00 | 0.00 | 37 | 1006.3 |
| 20260505124513 | 74 | 352 | 0.0 | 3.0 | 0.00 | 0.00 | 0.00 | 34 | 1006.3 |
| 20260505124007 | 75 | 302 | 0.0 | 3.0 | 0.00 | 0.00 | 0.00 | 34 | 1006.2 |
| 20260505123507 | 73 | 272 | 0.0 | 4.0 | 0.00 | 0.00 | 0.00 | 34 | 1006.3 |
| 20260505123008 | 73 | 181 | 1.0 | 4.0 | 0.00 | 0.00 | 0.00 | 34 | 1006.3 |
| 20260505122503 | 74 | 244 | 2.0 | 5.0 | 0.00 | 0.00 | 0.00 | 33 | 1006.4 |
| 20260505122004 | 75 | 211 | 1.0 | 5.0 | 0.00 | 0.00 | 0.00 | 34 | 1006.4 |
| 20260505121515 | 74 | 101 | 2.0 | 6.0 | 0.00 | 0.00 | 0.00 | 34 | 1006.4 |
| 20260505121004 | 75 | 111 | 1.0 | 7.0 | 0.00 | 0.00 | 0.00 | 35 | 1006.5 |
| 20260505120508 | 74 | 157 | 2.0 | 7.0 | 0.00 | 0.00 | 0.00 | 34 | 1006.5 |
| 20260505120006 | 75 | 94 | 1.0 | 4.0 | 0.00 | 0.00 | 0.00 | 34 | 1006.5 |
| 20260505115504 | 75 | 26 | 2.0 | 5.0 | 0.00 | 0.00 | 0.00 | 35 | 1006.6 |
| 20260505115004 | 75 | 57 | 1.0 | 6.0 | 0.00 | 0.00 | 0.00 | 36 | 1006.6 |
| 20260505114509 | 74 | 120 | 2.0 | 6.0 | 0.00 | 0.00 | 0.00 | 39 | 1006.7 |
| 20260505114004 | 75 | 148 | 3.0 | 6.0 | 0.00 | 0.00 | 0.00 | 35 | 1006.7 |
| 20260505113505 | 76 | 98 | 0.0 | 3.0 | 0.00 | 0.00 | 0.00 | 37 | 1006.7 |
| 20260505113015 | 75 | 126 | 0.0 | 2.0 | 0.00 | 0.00 | 0.00 | 39 | 1006.7 |
| 20260505112503 | 75 | 103 | 1.0 | 2.0 | 0.00 | 0.00 | 0.00 | 37 | 1006.8 |
| 20260505112005 | 74 | 19 | 0.0 | 5.0 | 0.00 | 0.00 | 0.00 | 37 | 1006.9 |
| 20260505111514 | 74 | 57 | 0.0 | 5.0 | 0.00 | 0.00 | 0.00 | 37 | 1006.9 |
| 20260505111004 | 73 | 78 | 1.0 | 4.0 | 0.00 | 0.00 | 0.00 | 39 | 1007.0 |
| 20260505110507 | 72 | 138 | 2.0 | 4.0 | 0.00 | 0.00 | 0.00 | 40 | 1007.0 |
| 20260505102006 | 71 | 201 | 1.0 | 3.0 | 0.00 | 0.00 | 0.00 | 43 | 1007.5 |
| 20260505101518 | 71 | 71 | 0.0 | 2.0 | 0.00 | 0.00 | 0.00 | 47 | 1007.6 |
| 20260505101008 | 70 | 144 | 1.0 | 2.0 | 0.00 | 0.00 | 0.00 | 43 | 1007.6 |
| 20260505100507 | 72 | 115 | 0.0 | 3.0 | 0.00 | 0.00 | 0.00 | 42 | 1007.7 |
| 20260505100022 | 71 | 214 | 0.0 | 3.0 | 0.00 | 0.00 | 0.00 | 42 | 1007.7 |
| 20260505095507 | 71 | 169 | 1.0 | 3.0 | 0.00 | 0.00 | 0.00 | 45 | 1007.8 |
| 20260505095007 | 71 | 123 | 1.0 | 3.0 | 0.00 | 0.00 | 0.00 | 49 | 1007.9 |
| 20260505094527 | 70 | 245 | 1.0 | 3.0 | 0.00 | 0.00 | 0.00 | 43 | 1007.9 |
| 20260505094003 | 71 | 329 | 0.0 | 2.0 | 0.00 | 0.00 | 0.00 | 43 | 1008.0 |
| 20260505093503 | 70 | 247 | 0.0 | 3.0 | 0.00 | 0.00 | 0.00 | 44 | 1008.0 |
| 20260505093025 | 69 | 94 | 0.0 | 3.0 | 0.00 | 0.00 | 0.00 | 44 | 1008.1 |
| 20260505092504 | 69 | 123 | 1.0 | 3.0 | 0.00 | 0.00 | 0.00 | 46 | 1008.3 |
| 20260505092004 | 70 | 256 | 0.0 | 2.0 | 0.00 | 0.00 | 0.00 | 47 | 1008.5 |
| 20260505091518 | 69 | 326 | 0.0 | 3.0 | 0.00 | 0.00 | 0.00 | 48 | 1008.4 |
| 20260505091007 | 70 | 295 | 0.0 | 3.0 | 0.00 | 0.00 | 0.00 | 50 | 1008.6 |
| 20260505090506 | 70 | 343 | 0.0 | 2.0 | 0.00 | 0.00 | 0.00 | 50 | 1008.6 |
| 20260505090004 | 69 | 260 | 0.0 | 2.0 | 0.00 | 0.00 | 0.00 | 50 | 1008.6 |
| 20260505085503 | 69 | 294 | 0.0 | 2.0 | 0.00 | 0.00 | 0.00 | 51 | 1008.7 |
| 20260505085003 | 67 | 114 | 0.0 | 2.0 | 0.00 | 0.00 | 0.00 | 52 | 1008.7 |
| 20260505084507 | 68 | 59 | 0.0 | 3.0 | 0.00 | 0.00 | 0.00 | 53 | 1008.7 |
| 20260505084004 | 68 | 307 | 1.0 | 3.0 | 0.00 | 0.00 | 0.00 | 54 | 1008.7 |
| 20260505083502 | 66 | 272 | 0.0 | 2.0 | 0.00 | 0.00 | 0.00 | 52 | 1008.7 |
| 20260505083009 | 68 | 260 | 0.0 | 2.0 | 0.00 | 0.00 | 0.00 | 53 | 1008.8 |
| 20260505082503 | 66 | 126 | 0.0 | 2.0 | 0.00 | 0.00 | 0.00 | 56 | 1008.8 |
| 20260505082003 | 66 | 309 | 0.0 | 2.0 | 0.00 | 0.00 | 0.00 | 55 | 1008.9 |
| 20260505081521 | 65 | 235 | 0.0 | 2.0 | 0.00 | 0.00 | 0.00 | 58 | 1009.0 |
| 20260505081007 | 65 | 15 | 0.0 | 2.0 | 0.00 | 0.00 | 0.00 | 58 | 1009.0 |
| 20260505080507 | 63 | 344 | 0.0 | 2.0 | 0.00 | 0.00 | 0.00 | 61 | 1009.1 |
| 20260505080004 | 62 | 291 | 0.0 | 2.0 | 0.00 | 0.00 | 0.00 | 62 | 1009.1 |
| 20260505075503 | 63 | 260 | 0.0 | 2.0 | 0.00 | 0.00 | 0.00 | 63 | 1009.1 |
| 20260505075003 | 63 | 269 | 0.0 | 2.0 | 0.00 | 0.00 | 0.00 | 64 | 1009.2 |
| 20260505074507 | 63 | 303 | 0.0 | 2.0 | 0.00 | 0.00 | 0.00 | 67 | 1009.2 |
| 20260505074003 | 63 | 360 | 0.0 | 2.0 | 0.00 | 0.00 | 0.00 | 65 | 1009.2 |
| 20260505073504 | 63 | 334 | 0.0 | 3.0 | 0.00 | 0.00 | 0.00 | 65 | 1009.2 |
| 20260505073008 | 63 | 315 | 0.0 | 3.0 | 0.00 | 0.00 | 0.00 | 67 | 1009.3 |
| 20260505072502 | 63 | 62 | 0.0 | 2.0 | 0.00 | 0.00 | 0.00 | 64 | 1009.4 |
| 20260505072003 | 63 | 273 | 0.0 | 2.0 | 0.00 | 0.00 | 0.00 | 65 | 1009.4 |
| 20260505071511 | 62 | 231 | 0.0 | 2.0 | 0.00 | 0.00 | 0.00 | 68 | 1009.4 |
| 20260505071006 | 62 | 5 | 0.0 | 2.0 | 0.00 | 0.00 | 0.00 | 67 | 1009.4 |
| 20260505070504 | 61 | 217 | 0.0 | 2.0 | 0.00 | 0.00 | 0.00 | 67 | 1009.4 |
| 20260505070006 | 61 | 237 | 0.0 | 2.0 | 0.00 | 0.00 | 0.00 | 68 | 1009.3 |
| 20260505065502 | 61 | 312 | 0.0 | 1.0 | 0.00 | 0.00 | 0.00 | 69 | 1009.3 |
| 20260505065005 | 61 | 302 | 0.0 | 2.0 | 0.00 | 0.00 | 0.00 | 70 | 1009.4 |
| 20260505064514 | 60 | 329 | 0.0 | 3.0 | 0.00 | 0.00 | 0.00 | 70 | 1009.4 |
| 20260505064005 | 60 | 352 | 0.0 | 3.0 | 0.00 | 0.00 | 0.00 | 72 | 1009.4 |
| 20260505063504 | 59 | 325 | 0.0 | 3.0 | 0.00 | 0.00 | 0.00 | 70 | 1009.3 |
| 20260505063009 | 59 | 309 | 0.0 | 3.0 | 0.00 | 0.00 | 0.00 | 70 | 1009.3 |
| 20260505062505 | 59 | 330 | 0.0 | 3.0 | 0.00 | 0.00 | 0.00 | 69 | 1009.3 |
| 20260505062003 | 59 | 313 | 0.0 | 3.0 | 0.00 | 0.00 | 0.00 | 70 | 1009.4 |
| 20260505061515 | 58 | 338 | 0.0 | 3.0 | 0.00 | 0.00 | 0.00 | 71 | 1009.3 |
| 20260505061006 | 58 | 308 | 0.0 | 2.0 | 0.00 | 0.00 | 0.00 | 70 | 1009.4 |
| 20260505060504 | 58 | 319 | 0.0 | 3.0 | 0.00 | 0.00 | 0.00 | 71 | 1009.4 |
| 20260505060022 | 58 | 303 | 0.0 | 3.0 | 0.00 | 0.00 | 0.00 | 71 | 1009.4 |
| 20260505055507 | 58 | 319 | 0.0 | 3.0 | 0.00 | 0.00 | 0.00 | 71 | 1009.3 |
| 20260505055006 | 58 | 313 | 0.0 | 2.0 | 0.00 | 0.00 | 0.00 | 70 | 1009.4 |
| 20260505054525 | 57 | 301 | 0.0 | 2.0 | 0.00 | 0.00 | 0.00 | 72 | 1009.4 |
| 20260505054006 | 57 | 254 | 0.0 | 2.0 | 0.00 | 0.00 | 0.00 | 73 | 1009.5 |
| 20260505053507 | 56 | 252 | 0.0 | 2.0 | 0.00 | 0.00 | 0.00 | 73 | 1009.6 |
| 20260505053020 | 56 | 217 | 0.0 | 2.0 | 0.00 | 0.00 | 0.00 | 73 | 1009.6 |
| 20260505052507 | 55 | 257 | 0.0 | 2.0 | 0.00 | 0.00 | 0.00 | 73 | 1009.5 |
| 20260505052004 | 55 | 275 | 0.0 | 2.0 | 0.00 | 0.00 | 0.00 | 74 | 1009.5 |
| 20260505051510 | 54 | 263 | 0.0 | 1.0 | 0.00 | 0.00 | 0.00 | 76 | 1009.6 |
| 20260505051004 | 54 | 237 | 0.0 | 0.0 | 0.00 | 0.00 | 0.00 | 78 | 1009.5 |
| 20260505050508 | 53 | 237 | 0.0 | 0.0 | 0.00 | 0.00 | 0.00 | 78 | 1009.6 |
| 20260505041525 | 51 | 335 | 0.0 | 0.0 | 0.00 | 0.00 | 0.00 | 81 | 1009.5 |
| 20260505041004 | 50 | 335 | 0.0 | 0.0 | 0.00 | 0.00 | 0.00 | 81 | 1009.5 |
| 20260505040504 | 51 | 335 | 0.0 | 0.0 | 0.00 | 0.00 | 0.00 | 81 | 1009.5 |
| 20260505040016 | 51 | 335 | 0.0 | 1.0 | 0.00 | 0.00 | 0.00 | 81 | 1009.6 |
| 20260505035508 | 51 | 335 | 0.0 | 1.0 | 0.00 | 0.00 | 0.00 | 81 | 1009.7 |
| 20260505035008 | 51 | 331 | 0.0 | 2.0 | 0.00 | 0.00 | 0.00 | 81 | 1009.6 |
| 20260505034516 | 51 | 331 | 0.0 | 2.0 | 0.00 | 0.00 | 0.00 | 80 | 1009.6 |
| 20260505034008 | 51 | 330 | 0.0 | 2.0 | 0.00 | 0.00 | 0.00 | 80 | 1009.7 |
| 20260505033507 | 51 | 333 | 0.0 | 2.0 | 0.00 | 0.00 | 0.00 | 80 | 1009.7 |
| 20260505033022 | 51 | 314 | 0.0 | 2.0 | 0.00 | 0.00 | 0.00 | 80 | 1009.6 |
| 20260505032507 | 52 | 329 | 0.0 | 2.0 | 0.00 | 0.00 | 0.00 | 80 | 1009.7 |
| 20260505032010 | 52 | 312 | 0.0 | 2.0 | 0.00 | 0.00 | 0.00 | 80 | 1009.8 |
| 20260505031525 | 52 | 315 | 0.0 | 2.0 | 0.00 | 0.00 | 0.00 | 80 | 1009.8 |
| 20260505031008 | 52 | 335 | 0.0 | 2.0 | 0.00 | 0.00 | 0.00 | 80 | 1009.8 |
| 20260505030502 | 52 | 343 | 0.0 | 2.0 | 0.00 | 0.00 | 0.00 | 79 | 1009.9 |
| 20260505030025 | 53 | 327 | 0.0 | 2.0 | 0.00 | 0.00 | 0.00 | 79 | 1009.9 |
| 20260505025505 | 53 | 320 | 0.0 | 2.0 | 0.00 | 0.00 | 0.00 | 79 | 1009.9 |
| 20260505025005 | 53 | 352 | 0.0 | 2.0 | 0.00 | 0.00 | 0.00 | 79 | 1009.9 |
| 20260505024514 | 53 | 329 | 0.0 | 2.0 | 0.00 | 0.00 | 0.00 | 80 | 1009.9 |
| 20260505024008 | 52 | 329 | 0.0 | 2.0 | 0.00 | 0.00 | 0.00 | 80 | 1010.0 |
| 20260505023505 | 53 | 325 | 0.0 | 2.0 | 0.00 | 0.00 | 0.00 | 79 | 1010.1 |
| 20260505023021 | 53 | 321 | 0.0 | 2.0 | 0.00 | 0.00 | 0.00 | 79 | 1010.1 |
| 20260505022505 | 53 | 336 | 0.0 | 1.0 | 0.00 | 0.00 | 0.00 | 79 | 1010.2 |
| 20260505022009 | 53 | 290 | 0.0 | 0.0 | 0.00 | 0.00 | 0.00 | 78 | 1010.2 |
| 20260505021528 | 53 | 290 | 0.0 | 0.0 | 0.00 | 0.00 | 0.00 | 77 | 1010.2 |
| 20260505021006 | 53 | 283 | 0.0 | 0.0 | 0.00 | 0.00 | 0.00 | 77 | 1010.2 |
| 20260505020502 | 53 | 265 | 0.0 | 0.0 | 0.00 | 0.00 | 0.00 | 77 | 1010.3 |
| 20260505020019 | 53 | 265 | 0.0 | 0.0 | 0.00 | 0.00 | 0.00 | 76 | 1010.3 |
| 20260505015507 | 53 | 265 | 0.0 | 0.0 | 0.00 | 0.00 | 0.00 | 76 | 1010.3 |
| 20260505015007 | 53 | 262 | 0.0 | 0.0 | 0.00 | 0.00 | 0.00 | 76 | 1010.3 |
| 20260505014523 | 53 | 262 | 0.0 | 0.0 | 0.00 | 0.00 | 0.00 | 76 | 1010.3 |
| 20260505014003 | 53 | 262 | 0.0 | 0.0 | 0.00 | 0.00 | 0.00 | 76 | 1010.3 |
| 20260505013504 | 54 | 244 | 0.0 | 0.0 | 0.00 | 0.00 | 0.00 | 75 | 1010.3 |
| 20260505013003 | 54 | 244 | 0.0 | 0.0 | 0.00 | 0.00 | 0.00 | 76 | 1010.4 |
| 20260505012504 | 54 | 244 | 0.0 | 0.0 | 0.00 | 0.00 | 0.00 | 76 | 1010.4 |
| 20260505012005 | 54 | 244 | 0.0 | 0.0 | 0.00 | 0.00 | 0.00 | 75 | 1010.5 |
| 20260505011512 | 54 | 244 | 0.0 | 0.0 | 0.00 | 0.00 | 0.00 | 75 | 1010.6 |
| 20260505011006 | 55 | 244 | 0.0 | 0.0 | 0.00 | 0.00 | 0.00 | 74 | 1010.7 |
| 20260505010506 | 55 | 244 | 0.0 | 0.0 | 0.00 | 0.00 | 0.00 | 74 | 1010.8 |
| 20260505010007 | 55 | 244 | 0.0 | 0.0 | 0.00 | 0.00 | 0.00 | 73 | 1010.8 |
| 20260505005504 | 55 | 248 | 0.0 | 0.0 | 0.00 | 0.00 | 0.00 | 73 | 1010.8 |
| 20260505005004 | 55 | 249 | 0.0 | 0.0 | 0.00 | 0.00 | 0.00 | 73 | 1010.8 |
| 20260505004523 | 55 | 249 | 0.0 | 0.0 | 0.00 | 0.00 | 0.00 | 73 | 1010.8 |
| 20260505004003 | 55 | 249 | 0.0 | 0.0 | 0.00 | 0.00 | 0.00 | 73 | 1010.8 |
| 20260505003507 | 56 | 249 | 0.0 | 0.0 | 0.00 | 0.00 | 0.00 | 73 | 1010.8 |
| 20260505003007 | 56 | 249 | 0.0 | 0.0 | 0.00 | 0.00 | 0.00 | 73 | 1010.8 |
| 20260505002504 | 56 | 249 | 0.0 | 0.0 | 0.00 | 0.00 | 0.00 | 73 | 1011.0 |
| 20260505002005 | 56 | 249 | 0.0 | 0.0 | 0.00 | 0.00 | 0.00 | 72 | 1011.0 |
| 20260505001516 | 56 | 249 | 0.0 | 0.0 | 0.00 | 0.00 | 0.00 | 73 | 1011.1 |
| 20260505001005 | 56 | 250 | 0.0 | 2.0 | 0.00 | 0.00 | 0.00 | 73 | 1011.1 |
| 20260505000505 | 56 | 259 | 0.0 | 2.0 | 0.00 | 0.00 | 0.00 | 73 | 1011.2 |
| 20260505000022 | 56 | 222 | 0.0 | 2.0 | 0.00 | 0.00 | 0.00 | 73 | 1011.2 |
| 20260504235505 | 56 | 215 | 0.0 | 0.0 | 0.00 | 0.00 | 0.00 | 72 | 1011.3 |
| 20260504235008 | 56 | 222 | 0.0 | 0.0 | 0.00 | 0.00 | 0.00 | 72 | 1011.3 |
| 20260504234507 | 56 | 234 | 0.0 | 0.0 | 0.00 | 0.00 | 0.00 | 72 | 1011.3 |
| 20260504234003 | 56 | 142 | 0.0 | 0.0 | 0.00 | 0.00 | 0.00 | 72 | 1011.4 |
| 20260504233503 | 56 | 225 | 0.0 | 0.0 | 0.00 | 0.00 | 0.00 | 72 | 1011.4 |
| 20260504233008 | 56 | 229 | 0.0 | 0.0 | 0.00 | 0.00 | 0.00 | 72 | 1011.4 |
| 20260504232504 | 57 | 227 | 0.0 | 0.0 | 0.00 | 0.00 | 0.00 | 71 | 1011.5 |
| 20260504232004 | 57 | 206 | 0.0 | 0.0 | 0.00 | 0.00 | 0.00 | 71 | 1011.6 |
| 20260504231532 | 57 | 231 | 0.0 | 1.0 | 0.00 | 0.00 | 0.00 | 71 | 1011.6 |
| 20260504231007 | 57 | 223 | 0.0 | 1.0 | 0.00 | 0.00 | 0.00 | 69 | 1011.7 |
| 20260504230507 | 58 | 210 | 0.0 | 0.0 | 0.00 | 0.00 | 0.00 | 69 | 1011.7 |
| 20260504230024 | 58 | 236 | 0.0 | 0.0 | 0.00 | 0.00 | 0.00 | 68 | 1011.7 |
| 20260504225513 | 58 | 260 | 0.0 | 2.0 | 0.00 | 0.00 | 0.00 | 67 | 1011.7 |
| 20260504225008 | 59 | 269 | 0.0 | 2.0 | 0.00 | 0.00 | 0.00 | 67 | 1011.7 |
| 20260504224529 | 59 | 269 | 0.0 | 0.0 | 0.00 | 0.00 | 0.00 | 67 | 1011.7 |
| 20260504224008 | 59 | 254 | 0.0 | 2.0 | 0.00 | 0.00 | 0.00 | 67 | 1011.7 |
| 20260504223503 | 59 | 261 | 0.0 | 2.0 | 0.00 | 0.00 | 0.00 | 67 | 1011.8 |
| 20260504223012 | 59 | 250 | 0.0 | 2.0 | 0.00 | 0.00 | 0.00 | 67 | 1011.8 |
| 20260504222505 | 59 | 269 | 0.0 | 0.0 | 0.00 | 0.00 | 0.00 | 66 | 1011.9 |
| 20260504222006 | 59 | 262 | 0.0 | 1.0 | 0.00 | 0.00 | 0.00 | 66 | 1012.0 |
| 20260504221517 | 60 | 286 | 0.0 | 2.0 | 0.00 | 0.00 | 0.00 | 65 | 1012.0 |
| 20260504221004 | 60 | 283 | 0.0 | 2.0 | 0.00 | 0.00 | 0.00 | 65 | 1012.0 |
| 20260504220506 | 60 | 242 | 0.0 | 2.0 | 0.00 | 0.00 | 0.00 | 65 | 1012.1 |
| 20260504220022 | 60 | 267 | 0.0 | 2.0 | 0.00 | 0.00 | 0.00 | 65 | 1012.2 |
| 20260504215507 | 60 | 294 | 0.0 | 2.0 | 0.00 | 0.00 | 0.00 | 64 | 1012.3 |
| 20260504215012 | 60 | 288 | 0.0 | 2.0 | 0.00 | 0.00 | 0.00 | 63 | 1012.3 |
| 20260504214534 | 61 | 261 | 0.0 | 3.0 | 0.00 | 0.00 | 0.00 | 63 | 1012.3 |
| 20260504214010 | 61 | 267 | 0.0 | 3.0 | 0.00 | 0.00 | 0.00 | 63 | 1012.4 |
| 20260504213503 | 61 | 275 | 0.0 | 3.0 | 0.00 | 0.00 | 0.00 | 63 | 1012.4 |
| 20260504213015 | 61 | 323 | 0.0 | 10.0 | 0.00 | 0.00 | 0.00 | 62 | 1012.3 |
| 20260504212504 | 61 | 287 | 0.0 | 10.0 | 0.00 | 0.00 | 0.00 | 62 | 1012.3 |
| 20260504212007 | 61 | 298 | 2.0 | 9.0 | 0.00 | 0.00 | 0.00 | 61 | 1012.3 |
| 20260504211515 | 62 | 308 | 0.0 | 4.0 | 0.00 | 0.00 | 0.00 | 61 | 1012.3 |
| 20260504211004 | 62 | 326 | 0.0 | 4.0 | 0.00 | 0.00 | 0.00 | 60 | 1012.3 |
| 20260504210503 | 62 | 349 | 0.0 | 4.0 | 0.00 | 0.00 | 0.00 | 59 | 1012.3 |
| 20260504210017 | 62 | 284 | 0.0 | 4.0 | 0.00 | 0.00 | 0.00 | 58 | 1012.3 |
| 20260504205507 | 62 | 278 | 1.0 | 4.0 | 0.00 | 0.00 | 0.00 | 57 | 1012.3 |